KSNA/SNA METAR and TAF weather

Enter ICAO airport designator
Station Type Date Time Source
KSNA METAR 2020/07/05 02:53 UTC NOAA

KSNA 050253Z 22005KT 10SM CLR 24/13 A2992 RMK AO2 SLP129 T02390133 56006


Station Type Date Time Source
KSNA Decoded METAR 2020/07/05 02:53 UTC NOAA

SANTA ANA WAYNE ORANGE CTY, CA, United States (KSNA) 33-41N 117-52W 15M
Jul 04, 2020 - 10:53 PM EDT / 2020.07.05 0253 UTC
Wind: from the SW (220 degrees) at 6 MPH (5 KT):0
Visibility: 10 mile(s):0
Sky conditions: clear
Temperature: 75.0 F (23.9 C)
Dew Point: 55.9 F (13.3 C)
Relative Humidity: 51%
Pressure (altimeter): 29.92 in. Hg (1013 hPa)
Pressure tendency: 0.02 inches (0.6 hPa) lower than three hours ago
ob: KSNA 050253Z 22005KT 10SM CLR 24/13 A2992 RMK AO2 SLP129 T02390133 56006
cycle: 3

Station Type Date Time Source
KSNA TAF 2020/07/04 18:28 UTC NOAA

TAF KSNA 041726Z 0418/0518 21005KT P6SM SKC
FM042000 22009KT P6SM SKC
FM050200 VRB04KT P6SM SKC
FM051000 VRB02KT 5SM BR BKN007
FM051400 VRB04KT 6SM HZ FEW007

Example: see airport list